createdAt,value
2023-10-03T00:01:52.827Z,66.75
2023-10-03T00:04:20.560Z,62.38
2023-10-03T00:06:47.876Z,66.32
2023-10-03T00:09:14.990Z,72.68
2023-10-03T00:11:42.227Z,71.93
2023-10-03T00:14:09.185Z,73.50
2023-10-03T00:16:36.772Z,68.82
2023-10-03T00:19:04.371Z,71.40
2023-10-03T00:21:52.084Z,71.70
2023-10-03T00:24:53.022Z,67.60
2023-10-03T00:27:47.935Z,65.38
2023-10-03T00:30:30.389Z,69.32
2023-10-03T00:33:20.078Z,70.10
2023-10-03T00:36:00.524Z,70.50
2023-10-03T00:38:27.554Z,71.03
2023-10-03T00:40:57.344Z,76.20
2023-10-03T00:43:25.978Z,71.18
2023-10-03T00:45:53.002Z,69.50
2023-10-03T00:48:22.759Z,71.78
2023-10-03T00:50:50.313Z,69.47
2023-10-03T00:53:18.074Z,69.68
2023-10-03T00:55:45.466Z,65.97
2023-10-03T00:58:12.668Z,69.82
2023-10-03T01:00:41.834Z,72.55
2023-10-03T01:03:39.172Z,68.90
2023-10-03T01:06:13.741Z,70.20
2023-10-03T01:08:42.389Z,67.70
2023-10-03T01:11:17.603Z,66.43
2023-10-03T01:14:00.016Z,72.30
2023-10-03T01:16:33.181Z,76.45
2023-10-03T01:19:15.544Z,69.30
2023-10-03T01:22:07.063Z,70.38
2023-10-03T01:25:08.412Z,73.78
2023-10-03T01:28:09.054Z,68.32
2023-10-03T01:30:52.522Z,69.30
2023-10-03T01:33:40.140Z,77.72
2023-10-03T01:36:21.159Z,72.07
2023-10-03T01:38:48.164Z,72.07
2023-10-03T01:41:15.266Z,71.28
2023-10-03T01:43:44.663Z,74.90
2023-10-03T01:46:13.767Z,71.93
2023-10-03T01:48:42.999Z,72.38
2023-10-03T01:51:10.367Z,70.38
2023-10-03T01:53:57.167Z,72.60
2023-10-03T01:56:37.773Z,72.60
2023-10-03T01:59:06.024Z,65.50
2023-10-03T02:01:36.451Z,68.57
2023-10-03T02:04:03.900Z,72.63
2023-10-03T02:06:31.137Z,69.18
2023-10-03T02:08:59.537Z,69.30
2023-10-03T02:11:28.531Z,68.00
2023-10-03T02:13:55.970Z,72.13
2023-10-03T02:16:23.765Z,68.05
2023-10-03T02:18:51.001Z,66.38
2023-10-03T02:21:18.533Z,69.82
2023-10-03T02:24:06.107Z,76.25
2023-10-03T02:27:09.166Z,72.97
2023-10-03T02:30:00.673Z,63.83
2023-10-03T02:32:49.176Z,61.85
2023-10-03T02:35:46.748Z,63.70
2023-10-03T02:38:27.020Z,58.33
2023-10-03T02:41:01.659Z,64.60
2023-10-03T02:43:35.617Z,66.13
2023-10-03T02:46:08.407Z,69.80
2023-10-03T02:48:37.257Z,69.47
2023-10-03T02:51:07.139Z,67.63
2023-10-03T02:53:35.482Z,69.10
2023-10-03T02:56:05.327Z,70.32
2023-10-03T02:58:32.627Z,67.38
2023-10-03T03:00:59.709Z,72.30
2023-10-03T03:03:32.251Z,72.53
2023-10-03T03:06:04.099Z,70.15
2023-10-03T03:08:32.418Z,69.47
2023-10-03T03:11:01.465Z,66.35
2023-10-03T03:13:34.134Z,65.22
2023-10-03T03:16:02.343Z,66.03
2023-10-03T03:18:32.733Z,67.45
2023-10-03T03:21:00.558Z,65.53
2023-10-03T03:23:45.248Z,66.47
2023-10-03T03:26:47.226Z,77.72
2023-10-03T03:29:59.215Z,77.80
2023-10-03T03:32:46.251Z,75.57
2023-10-03T03:35:50.750Z,69.22
2023-10-03T03:38:21.914Z,69.35
2023-10-03T03:40:56.700Z,67.20
2023-10-03T03:43:23.986Z,70.20
2023-10-03T03:45:52.966Z,69.75
2023-10-03T03:48:24.389Z,64.45
2023-10-03T03:50:51.734Z,65.57
2023-10-03T03:53:20.486Z,69.05
2023-10-03T03:55:47.716Z,58.20
2023-10-03T03:58:19.655Z,69.35
2023-10-03T04:00:52.558Z,70.18
2023-10-03T04:03:25.454Z,68.13
2023-10-03T04:05:52.794Z,69.03
2023-10-03T04:08:19.838Z,68.90
2023-10-03T04:10:47.266Z,71.03
2023-10-03T04:13:16.913Z,64.32
2023-10-03T04:15:47.077Z,68.65
2023-10-03T04:18:17.414Z,70.38
2023-10-03T04:20:47.937Z,66.78
2023-10-03T04:23:35.200Z,69.00
2023-10-03T04:26:36.338Z,65.72
2023-10-03T04:29:37.244Z,75.68
2023-10-03T04:32:38.321Z,72.90
2023-10-03T04:35:39.309Z,76.22
2023-10-03T04:38:19.142Z,80.40
2023-10-03T04:40:48.818Z,76.53
2023-10-03T04:43:16.200Z,73.95
2023-10-03T04:45:44.983Z,77.97
2023-10-03T04:48:12.377Z,75.63
2023-10-03T04:50:41.252Z,71.47
2023-10-03T04:53:15.588Z,71.88
2023-10-03T04:55:49.518Z,74.10
2023-10-03T05:00:44.082Z,73.85
2023-10-03T05:03:11.321Z,69.55
2023-10-03T05:05:39.297Z,76.20
2023-10-03T05:08:08.900Z,81.07
2023-10-03T05:10:38.131Z,81.30
2023-10-03T05:13:27.214Z,80.80
2023-10-03T05:16:09.457Z,84.80
2023-10-03T05:18:37.056Z,89.43
2023-10-03T05:21:05.068Z,92.05
2023-10-03T05:23:52.282Z,96.97
2023-10-03T05:26:53.243Z,101.75
2023-10-03T05:29:54.279Z,99.53
2023-10-03T05:32:42.283Z,93.65
2023-10-03T05:35:43.316Z,83.20
2023-10-03T05:38:16.812Z,89.33
2023-10-03T05:40:46.160Z,90.55
2023-10-03T05:43:13.173Z,94.28
2023-10-03T05:45:41.058Z,91.13
2023-10-03T05:48:08.289Z,92.38
2023-10-03T05:50:56.279Z,94.25
2023-10-03T05:53:57.552Z,96.18
2023-10-03T05:56:38.706Z,97.60
2023-10-03T05:59:05.886Z,98.47
2023-10-03T06:01:32.888Z,97.20
2023-10-03T06:04:01.757Z,97.50
2023-10-03T06:06:31.949Z,94.75
2023-10-03T06:09:12.239Z,95.45
2023-10-03T06:12:14.356Z,96.28
2023-10-03T06:15:15.310Z,100.85
2023-10-03T06:17:55.995Z,105.18
2023-10-03T06:20:25.809Z,102.95
2023-10-03T06:23:13.243Z,103.95
2023-10-03T06:26:14.558Z,104.72
2023-10-03T06:29:15.628Z,102.60
2023-10-03T06:32:16.277Z,102.57
2023-10-03T06:35:17.275Z,102.97
2023-10-03T06:37:58.905Z,104.30
2023-10-03T06:40:26.216Z,104.95
2023-10-03T06:42:53.308Z,103.35
2023-10-03T06:45:22.497Z,98.72
2023-10-03T06:47:49.637Z,100.03
2023-10-03T06:50:17.041Z,92.55
2023-10-03T06:52:44.468Z,92.78
2023-10-03T06:55:16.566Z,81.40
2023-10-03T06:57:43.594Z,77.25
2023-10-03T07:00:14.637Z,76.18
2023-10-03T07:02:42.373Z,67.88
2023-10-03T07:05:09.769Z,68.47
2023-10-03T07:07:36.857Z,70.13
2023-10-03T07:10:24.292Z,67.00
2023-10-03T07:13:26.192Z,60.22
2023-10-03T07:16:14.345Z,59.85
2023-10-03T07:18:43.277Z,53.42
2023-10-03T07:21:11.308Z,57.05
2023-10-03T07:24:01.401Z,56.20
2023-10-03T07:26:42.708Z,56.38
2023-10-03T07:29:09.735Z,54.75
2023-10-03T07:31:38.271Z,55.85
2023-10-03T07:34:05.625Z,51.92
2023-10-03T07:36:32.701Z,53.85
2023-10-03T07:39:21.394Z,48.90
2023-10-03T07:42:02.942Z,49.38
2023-10-03T07:44:30.055Z,46.97
2023-10-03T07:46:57.343Z,45.67
2023-10-03T07:49:24.487Z,46.05
2023-10-03T07:52:12.474Z,43.03
2023-10-03T07:54:56.530Z,41.78
2023-10-03T07:57:25.154Z,37.72
2023-10-03T07:59:52.414Z,37.50
2023-10-03T08:02:19.591Z,39.22
2023-10-03T08:04:48.232Z,35.53
2023-10-03T08:07:22.765Z,33.38
2023-10-03T08:10:10.334Z,35.05
2023-10-03T08:13:24.316Z,31.70
2023-10-03T08:16:05.182Z,32.28
2023-10-03T08:18:37.568Z,31.60
2023-10-03T08:21:05.236Z,29.90
2023-10-03T08:23:59.512Z,29.48
2023-10-03T08:26:39.951Z,29.95
2023-10-03T08:29:07.589Z,32.97
2023-10-03T08:31:40.104Z,32.15
2023-10-03T08:34:12.105Z,30.10
2023-10-03T08:36:39.310Z,29.88
2023-10-03T08:39:26.437Z,26.38
2023-10-03T08:42:14.664Z,30.20
2023-10-03T08:45:00.645Z,30.65
2023-10-03T08:47:39.963Z,30.85
2023-10-03T08:50:12.642Z,27.45
2023-10-03T08:52:48.931Z,28.03
2023-10-03T08:55:21.732Z,26.98
2023-10-03T08:57:51.897Z,25.35
2023-10-03T09:00:26.760Z,24.65
2023-10-03T09:03:10.746Z,26.08
2023-10-03T09:05:42.907Z,27.52
2023-10-03T09:08:15.091Z,27.38
2023-10-03T09:11:03.422Z,25.75
2023-10-03T09:13:47.305Z,28.27
2023-10-03T09:16:16.414Z,27.58
2023-10-03T09:18:43.518Z,28.52
2023-10-03T09:21:31.802Z,29.58
2023-10-03T09:24:35.359Z,28.23
2023-10-03T09:27:19.279Z,28.43
2023-10-03T09:29:51.093Z,31.42
2023-10-03T09:32:24.685Z,32.28
2023-10-03T09:34:59.233Z,29.70
2023-10-03T09:37:51.505Z,29.00
2023-10-03T09:41:06.493Z,31.73
2023-10-03T09:44:08.439Z,31.67
2023-10-03T09:46:54.421Z,34.38
2023-10-03T09:49:27.658Z,31.17
2023-10-03T09:51:55.147Z,34.38
2023-10-03T09:54:32.091Z,33.40
2023-10-03T09:57:02.171Z,35.88
2023-10-03T09:59:34.142Z,33.33
2023-10-03T10:02:01.765Z,32.80
2023-10-03T10:07:36.039Z,31.52
2023-10-03T10:13:30.392Z,36.20
2023-10-03T10:16:08.913Z,34.65
2023-10-03T10:18:45.963Z,36.10
2023-10-03T10:21:45.518Z,35.95
2023-10-03T10:24:48.441Z,37.50
2023-10-03T10:27:31.029Z,35.57
2023-10-03T10:30:00.606Z,35.85
2023-10-03T10:32:29.877Z,40.47
2023-10-03T10:35:03.228Z,36.10
2023-10-03T10:38:03.381Z,33.30
2023-10-03T10:41:25.453Z,32.47
2023-10-03T10:44:10.362Z,32.65
2023-10-03T10:46:41.266Z,30.08
2023-10-03T10:49:31.952Z,29.58
2023-10-03T10:52:01.337Z,29.20
2023-10-03T10:54:29.367Z,29.20
2023-10-03T10:57:01.102Z,26.15
2023-10-03T10:59:29.360Z,24.80
2023-10-03T11:01:59.081Z,24.10
2023-10-03T11:04:46.511Z,25.75
2023-10-03T11:07:50.448Z,24.88
2023-10-03T11:11:11.449Z,27.08
2023-10-03T11:14:12.780Z,24.40
2023-10-03T11:17:13.486Z,26.95
2023-10-03T11:20:10.078Z,23.42
2023-10-03T11:22:57.437Z,26.98
2023-10-03T11:25:41.802Z,23.20
2023-10-03T11:28:09.536Z,27.90
2023-10-03T11:30:38.046Z,24.75
2023-10-03T11:33:25.609Z,23.35
2023-10-03T11:36:27.430Z,26.15
2023-10-03T11:39:34.437Z,22.75
2023-10-03T11:42:28.604Z,27.30
2023-10-03T11:45:00.597Z,28.77
2023-10-03T11:47:48.650Z,29.15
2023-10-03T11:50:41.002Z,27.05
2023-10-03T11:53:29.479Z,24.27
2023-10-03T11:56:30.460Z,27.90
2023-10-03T11:59:31.497Z,30.55
2023-10-03T12:02:12.709Z,24.63
2023-10-03T12:04:39.726Z,28.67
2023-10-03T12:07:29.290Z,27.77
2023-10-03T12:10:38.469Z,26.58
2023-10-03T12:13:16.873Z,24.00
2023-10-03T12:15:44.668Z,23.05
2023-10-03T12:18:12.733Z,23.58
2023-10-03T12:20:40.317Z,25.92
2023-10-03T12:23:27.569Z,26.48
2023-10-03T12:26:28.592Z,25.50
2023-10-03T12:29:29.682Z,26.13
2023-10-03T12:32:10.128Z,23.52
2023-10-03T12:34:57.515Z,24.67
2023-10-03T12:37:39.094Z,21.17
2023-10-03T12:40:26.499Z,23.42
2023-10-03T12:43:08.458Z,22.83
2023-10-03T12:45:35.505Z,21.63
2023-10-03T12:48:22.875Z,23.05
2023-10-03T12:51:23.512Z,18.55
2023-10-03T12:54:24.556Z,24.33
2023-10-03T12:57:25.513Z,23.33
2023-10-03T13:00:07.990Z,24.90
2023-10-03T13:02:55.693Z,26.25
2023-10-03T13:05:56.618Z,27.52
2023-10-03T13:08:59.724Z,24.88
2023-10-03T13:12:00.633Z,26.83
2023-10-03T13:15:01.618Z,21.30
2023-10-03T13:17:43.364Z,19.73
2023-10-03T13:20:14.471Z,21.83
2023-10-03T13:23:02.568Z,19.48
2023-10-03T13:25:46.417Z,22.38
2023-10-03T13:28:14.585Z,22.67
2023-10-03T13:30:42.238Z,20.13
2023-10-03T13:33:29.988Z,21.05
2023-10-03T13:36:16.196Z,25.70
2023-10-03T13:39:03.811Z,23.38
2023-10-03T13:42:04.658Z,25.50
2023-10-03T13:45:05.582Z,25.63
2023-10-03T13:48:07.674Z,24.48
2023-10-03T13:51:02.688Z,21.42
2023-10-03T13:53:57.606Z,23.50
2023-10-03T13:56:38.239Z,23.65
2023-10-03T13:59:06.633Z,24.10
2023-10-03T14:01:33.851Z,26.42
2023-10-03T14:04:01.029Z,24.73
2023-10-03T14:06:31.444Z,25.15
2023-10-03T14:08:58.785Z,22.38
2023-10-03T14:11:45.593Z,17.52
2023-10-03T14:14:46.741Z,21.98
2023-10-03T14:17:27.379Z,22.20
2023-10-03T14:19:55.264Z,25.33
2023-10-03T14:22:42.771Z,23.55
2023-10-03T14:25:41.110Z,23.85
2023-10-03T14:28:10.049Z,22.52
2023-10-03T14:30:37.013Z,22.70
2023-10-03T14:33:24.737Z,20.92
2023-10-03T14:36:16.327Z,23.42
2023-10-03T14:38:43.515Z,21.60
2023-10-03T14:41:13.032Z,21.48
2023-10-03T14:43:41.501Z,17.48
2023-10-03T14:46:09.068Z,18.35
2023-10-03T14:48:36.183Z,17.45
2023-10-03T14:51:03.426Z,16.33
2023-10-03T14:53:31.047Z,18.20
2023-10-03T14:56:19.589Z,19.30
2023-10-03T14:59:13.944Z,19.58
2023-10-03T15:01:57.148Z,17.60
2023-10-03T15:04:24.394Z,16.98
2023-10-03T15:07:11.706Z,16.42
2023-10-03T15:09:52.878Z,16.95
2023-10-03T15:12:39.619Z,16.98
2023-10-03T15:15:43.636Z,15.10
2023-10-03T15:18:45.748Z,22.60
2023-10-03T15:21:57.642Z,25.55
2023-10-03T15:24:58.853Z,23.30
2023-10-03T15:27:39.369Z,21.67
2023-10-03T15:30:10.107Z,19.27
2023-10-03T15:32:57.683Z,20.67
2023-10-03T15:35:58.758Z,19.52
2023-10-03T15:38:59.720Z,27.77
2023-10-03T15:41:40.414Z,24.65
2023-10-03T15:44:09.634Z,24.00
2023-10-03T15:46:36.690Z,23.15
2023-10-03T15:49:04.122Z,20.58
2023-10-03T15:51:31.243Z,22.90
2023-10-03T15:53:58.307Z,23.67
2023-10-03T15:56:45.916Z,24.70
2023-10-03T15:59:45.834Z,25.10
2023-10-03T16:02:13.133Z,23.65
2023-10-03T16:04:40.264Z,22.95
2023-10-03T16:07:07.354Z,27.63
2023-10-03T16:09:34.621Z,20.80
2023-10-03T16:12:21.683Z,24.05
2023-10-03T16:15:22.756Z,18.45
2023-10-03T16:18:23.820Z,23.50
2023-10-03T16:21:24.705Z,21.02
2023-10-03T16:24:25.727Z,29.30
2023-10-03T16:27:29.167Z,31.77
2023-10-03T16:30:12.123Z,31.98
2023-10-03T16:32:59.791Z,22.48
2023-10-03T16:36:00.809Z,23.75
2023-10-03T16:39:03.074Z,24.85
2023-10-03T16:41:44.426Z,24.23
2023-10-03T16:44:11.800Z,41.47
2023-10-03T16:46:38.919Z,25.25
2023-10-03T16:49:07.223Z,23.27
2023-10-03T16:51:35.141Z,24.00
2023-10-03T16:54:04.331Z,34.47
2023-10-03T16:56:32.245Z,32.75
2023-10-03T16:58:59.727Z,28.05
2023-10-03T17:01:26.914Z,23.70
2023-10-03T17:03:56.543Z,24.25
2023-10-03T17:06:45.812Z,25.02
2023-10-03T17:09:31.853Z,24.92
2023-10-03T17:12:19.726Z,29.70
2023-10-03T17:15:21.768Z,31.55
2023-10-03T17:18:22.777Z,30.98
2023-10-03T17:21:25.785Z,31.20
2023-10-03T17:24:26.784Z,30.30
2023-10-03T17:27:27.803Z,33.00
2023-10-03T17:30:28.873Z,30.60
2023-10-03T17:33:29.867Z,32.05
2023-10-03T17:36:10.444Z,29.42
2023-10-03T17:38:37.504Z,35.85
2023-10-03T17:41:06.756Z,39.22
2023-10-03T17:43:34.329Z,35.58
2023-10-03T17:46:02.565Z,36.55
2023-10-03T17:48:29.656Z,34.30
2023-10-03T17:50:56.828Z,35.85
2023-10-03T17:53:23.880Z,38.22
2023-10-03T17:55:52.873Z,35.80
2023-10-03T17:58:20.056Z,39.35
2023-10-03T18:00:47.745Z,41.45
2023-10-03T18:03:16.375Z,41.40
2023-10-03T18:05:43.793Z,42.08
2023-10-03T18:08:10.905Z,43.15
2023-10-03T18:10:37.994Z,41.35
2023-10-03T18:13:06.561Z,39.97
2023-10-03T18:15:35.176Z,43.63
2023-10-03T18:18:02.884Z,43.40
2023-10-03T18:20:30.295Z,45.83
2023-10-03T18:23:17.752Z,44.78
2023-10-03T18:26:00.087Z,45.00
2023-10-03T18:29:00.917Z,46.80
2023-10-03T18:32:02.819Z,41.90
2023-10-03T18:34:44.526Z,45.88
2023-10-03T18:37:11.528Z,44.50
2023-10-03T18:39:38.608Z,46.20
2023-10-03T18:42:05.828Z,44.25
2023-10-03T18:44:32.932Z,42.08
2023-10-03T18:47:20.023Z,42.90
2023-10-03T18:50:08.299Z,38.25
2023-10-03T18:52:36.981Z,35.35
2023-10-03T18:55:05.882Z,31.63
2023-10-03T18:57:33.194Z,33.38
2023-10-03T19:00:00.525Z,33.45
2023-10-03T19:02:27.555Z,31.50
2023-10-03T19:04:54.821Z,30.70
2023-10-03T19:07:21.849Z,31.73
2023-10-03T19:09:51.947Z,28.52
2023-10-03T19:12:39.772Z,26.77
2023-10-03T19:15:28.840Z,25.73
2023-10-03T19:17:55.967Z,27.33
2023-10-03T19:20:23.012Z,28.08
2023-10-03T19:23:10.087Z,26.55
2023-10-03T19:25:50.373Z,25.92
2023-10-03T19:28:17.398Z,27.55
2023-10-03T19:30:44.882Z,27.95
2023-10-03T19:33:12.065Z,26.55
2023-10-03T19:35:39.294Z,28.50
2023-10-03T19:38:06.740Z,27.70
2023-10-03T19:40:34.805Z,27.92
2023-10-03T19:43:01.839Z,26.95
2023-10-03T19:45:32.319Z,23.63
2023-10-03T19:48:25.954Z,23.58
2023-10-03T19:51:09.629Z,25.05
2023-10-03T19:53:37.623Z,22.80
2023-10-03T19:56:09.805Z,23.45
2023-10-03T19:58:37.297Z,22.83
2023-10-03T20:01:08.742Z,22.42
2023-10-03T20:03:37.154Z,22.05
2023-10-03T20:06:09.557Z,21.30
2023-10-03T20:08:36.890Z,20.88
2023-10-03T20:11:04.108Z,17.45
2023-10-03T20:13:51.076Z,19.08
2023-10-03T20:16:31.634Z,18.35
2023-10-03T20:18:58.728Z,17.45
2023-10-03T20:21:45.825Z,17.55
2023-10-03T20:24:46.858Z,18.10
2023-10-03T20:27:48.876Z,20.13
2023-10-03T20:30:29.618Z,16.70
2023-10-03T20:32:57.158Z,19.25
2023-10-03T20:35:24.294Z,19.60
2023-10-03T20:37:52.460Z,19.05
2023-10-03T20:40:19.528Z,17.63
2023-10-03T20:42:47.327Z,16.80
2023-10-03T20:45:14.403Z,18.30
2023-10-03T20:50:56.557Z,18.30
2023-10-03T20:53:24.608Z,18.75
2023-10-03T20:55:51.821Z,18.77
2023-10-03T20:58:19.165Z,18.13
2023-10-03T21:00:46.170Z,19.80
2023-10-03T21:03:13.166Z,18.25
2023-10-03T21:05:41.245Z,18.98
2023-10-03T21:08:10.152Z,18.30
2023-10-03T21:10:42.014Z,18.40
2023-10-03T21:13:09.115Z,19.05
2023-10-03T21:15:37.084Z,19.05
2023-10-03T21:18:04.569Z,17.73
2023-10-03T21:20:31.745Z,18.23
2023-10-03T21:23:19.237Z,19.00
2023-10-03T21:26:09.804Z,17.90
2023-10-03T21:28:37.173Z,18.75
2023-10-03T21:31:07.600Z,19.35
2023-10-03T21:33:35.097Z,20.30
2023-10-03T21:36:03.356Z,18.02
2023-10-03T21:38:30.970Z,18.65
2023-10-03T21:40:58.583Z,19.88
2023-10-03T21:43:25.712Z,19.02
2023-10-03T21:46:14.893Z,18.48
2023-10-03T21:49:15.932Z,18.95
2023-10-03T21:51:56.499Z,18.25
2023-10-03T21:54:23.675Z,20.08
2023-10-03T21:56:50.839Z,20.73
2023-10-03T21:59:17.950Z,20.10
2023-10-03T22:01:44.881Z,18.60
2023-10-03T22:04:13.284Z,21.23
2023-10-03T22:06:40.301Z,20.27
2023-10-03T22:09:11.071Z,18.40
2023-10-03T22:11:57.925Z,20.85
2023-10-03T22:14:58.963Z,20.05
2023-10-03T22:17:39.467Z,20.35
2023-10-03T22:20:07.114Z,22.50
2023-10-03T22:22:54.892Z,22.23
2023-10-03T22:25:40.623Z,21.42
2023-10-03T22:28:07.644Z,23.55
2023-10-03T22:30:35.003Z,23.98
2023-10-03T22:33:02.532Z,21.20
2023-10-03T22:35:29.802Z,22.48
2023-10-03T22:38:07.772Z,22.85
2023-10-03T22:40:39.643Z,22.42
2023-10-03T22:43:08.346Z,23.48
2023-10-03T22:45:36.053Z,23.58
2023-10-03T22:48:22.980Z,27.52
2023-10-03T22:51:03.804Z,27.80
2023-10-03T22:53:30.820Z,28.42
2023-10-03T22:55:57.833Z,24.90
2023-10-03T22:58:25.186Z,25.00
2023-10-03T23:00:54.126Z,25.58
2023-10-03T23:03:21.719Z,27.02
2023-10-03T23:05:48.921Z,30.40
2023-10-03T23:08:17.234Z,29.30
2023-10-03T23:10:45.737Z,33.40
2023-10-03T23:13:12.702Z,32.85
2023-10-03T23:15:42.810Z,33.92
2023-10-03T23:18:09.852Z,31.50
2023-10-03T23:20:37.017Z,34.35
2023-10-03T23:23:23.954Z,36.30
2023-10-03T23:26:05.179Z,35.72
2023-10-03T23:28:32.238Z,33.60
2023-10-03T23:30:59.200Z,34.67
2023-10-03T23:33:26.585Z,33.55
2023-10-03T23:35:53.565Z,36.50
2023-10-03T23:38:23.987Z,32.53
2023-10-03T23:41:10.944Z,35.28
2023-10-03T23:44:13.969Z,35.42
2023-10-03T23:47:15.309Z,36.53
2023-10-03T23:50:07.793Z,34.35
2023-10-03T23:52:35.207Z,32.00
2023-10-03T23:55:08.756Z,33.38
2023-10-03T23:57:38.851Z,33.67
